This is the latest recevied weather packets stored in our database for station/object LY3PGO-4. If no packets are shown the sender has not sent any weather packets the latest 1 day(s).
| Time | Temp. | Humidity | Pressure | Rain* | Wind** | Luminosity | Snow |
|---|---|---|---|---|---|---|---|
| 1777989940 | 17.78° C | 61% | 1008.2 hPa | 0 mm | 0.89 m/s, 202° | - | - |
| 1777989331 | 17.78° C | 58% | 1008.5 hPa | 0 mm | 2.68 m/s, 270° | - | - |
| 1777988725 | 18.33° C | 54% | 1008.2 hPa | 0 mm | 2.68 m/s, 247° | - | - |
| 1777988118 | 18.33° C | 55% | 1008.5 hPa | 0 mm | 1.34 m/s, 225° | - | - |
| 1777987513 | 18.89° C | 52% | 1008.2 hPa | 0 mm | 1.79 m/s, 270° | - | - |
| 1777986911 | 19.44° C | 54% | 1008.4 hPa | 0 mm | 1.79 m/s, 202° | - | - |
| 1777986301 | 19.44° C | 50% | 1008.2 hPa | 0 mm | 3.13 m/s, 157° | - | - |
| 1777985695 | 20° C | 49% | 1008.3 hPa | 0 mm | 3.13 m/s, 270° | - | - |
| 1777985087 | 20° C | 53% | 1008.5 hPa | 0 mm | 1.34 m/s, 270° | - | - |
| 1777984482 | 20.56° C | 50% | 1008.5 hPa | 0 mm | 3.58 m/s, 225° | - | - |
| 1777983879 | 20.56° C | 49% | 1008.3 hPa | 0 mm | 1.79 m/s, 270° | - | - |
| 1777983269 | 20.56° C | 47% | 1008.5 hPa | 0 mm | 2.68 m/s, 247° | - | - |
| 1777982663 | 20.56° C | 48% | 1008.4 hPa | 0 mm | 1.34 m/s, 247° | - | - |
| 1777982057 | 21.11° C | 49% | 1008.5 hPa | 0 mm | 1.34 m/s, 225° | - | - |
| 1777981452 | 21.11° C | 47% | 1008.4 hPa | 0 mm | 2.24 m/s, 292° | - | - |
| 1777980847 | 21.11° C | 49% | 1008.6 hPa | 0 mm | 1.79 m/s, 202° | - | - |
| 1777980239 | 20.56° C | 48% | 1008.5 hPa | 0 mm | 0.89 m/s, 157° | - | - |
| 1777979642 | 20.56° C | 49% | 1008.8 hPa | 0 mm | 1.79 m/s, 225° | - | - |
| 1777979026 | 20.56° C | 49% | 1008.8 hPa | 0 mm | 1.79 m/s, 292° | - | - |
| 1777978420 | 20° C | 47% | 1008.8 hPa | 0 mm | 2.68 m/s, 247° | - | - |
| 1777977816 | 20.56° C | 49% | 1008.8 hPa | 0 mm | 1.79 m/s, 292° | - | - |
| 1777977207 | 20° C | 48% | 1009 hPa | 0 mm | 1.79 m/s, 270° | - | - |
| 1777976601 | 20° C | 49% | 1009 hPa | 0 mm | 1.79 m/s, 270° | - | - |
| 1777975997 | 19.44° C | 52% | 1009 hPa | 0 mm | 1.34 m/s, 180° | - | - |
| 1777975389 | 19.44° C | 54% | 1009.1 hPa | 0 mm | 2.24 m/s, 247° | - | - |
* Rain latest hour (hover to see other rain measurements)
** Current wind speed in m/s (hover to see current wind gust speed)